createdAt,value
2019-01-23T00:02:18.327Z,3.52
2019-01-23T00:04:52.532Z,4.19
2019-01-23T00:07:29.623Z,3.69
2019-01-23T00:10:04.820Z,4.29
2019-01-23T00:12:36.906Z,3.88
2019-01-23T00:15:11.324Z,4.12
2019-01-23T00:17:44.807Z,3.35
2019-01-23T00:20:18.261Z,4.16
2019-01-23T00:22:50.602Z,3.72
2019-01-23T00:25:21.937Z,4.25
2019-01-23T00:27:53.791Z,4.58
2019-01-23T00:30:25.076Z,4.93
2019-01-23T00:32:56.720Z,4.83
2019-01-23T00:35:29.997Z,4.59
2019-01-23T00:38:03.540Z,4.76
2019-01-23T00:40:35.292Z,4.70
2019-01-23T00:43:08.002Z,4.58
2019-01-23T00:45:41.231Z,4.18
2019-01-23T00:48:14.158Z,4.19
2019-01-23T00:50:47.689Z,3.94
2019-01-23T00:53:21.258Z,3.35
2019-01-23T00:55:53.408Z,3.50
2019-01-23T00:58:26.994Z,3.16
2019-01-23T01:00:58.142Z,3.46
2019-01-23T01:03:30.308Z,4.25
2019-01-23T01:06:02.880Z,3.77
2019-01-23T01:08:34.334Z,4.36
2019-01-23T01:11:07.055Z,4.24
2019-01-23T01:13:40.044Z,4.51
2019-01-23T01:16:12.233Z,4.02
2019-01-23T01:18:43.464Z,4.23
2019-01-23T01:21:14.820Z,4.63
2019-01-23T01:23:47.182Z,4.81
2019-01-23T01:26:18.635Z,4.50
2019-01-23T01:28:55.979Z,4.40
2019-01-23T01:31:23.343Z,4.54
2019-01-23T01:33:54.650Z,3.47
2019-01-23T01:36:26.784Z,3.96
2019-01-23T01:38:58.213Z,4.70
2019-01-23T01:41:30.316Z,4.21
2019-01-23T01:44:03.572Z,4.53
2019-01-23T01:46:36.140Z,4.81
2019-01-23T01:49:09.696Z,4.74
2019-01-23T01:51:42.231Z,4.31
2019-01-23T01:54:17.010Z,3.90
2019-01-23T01:57:08.716Z,4.39
2019-01-23T01:59:44.090Z,4.31
2019-01-23T02:02:15.355Z,4.64
2019-01-23T02:04:47.489Z,4.79
2019-01-23T02:07:19.011Z,4.37
2019-01-23T02:09:52.941Z,4.82
2019-01-23T02:12:25.659Z,3.78
2019-01-23T02:14:58.532Z,3.83
2019-01-23T02:17:31.370Z,4.04
2019-01-23T02:20:02.975Z,3.93
2019-01-23T02:22:34.280Z,3.85
2019-01-23T02:25:07.262Z,3.94
2019-01-23T02:27:39.456Z,4.20
2019-01-23T02:30:14.337Z,4.08
2019-01-23T02:32:48.224Z,3.99
2019-01-23T02:35:26.239Z,4.51
2019-01-23T02:37:58.095Z,4.21
2019-01-23T02:40:29.902Z,4.26
2019-01-23T02:43:01.873Z,4.01
2019-01-23T02:45:35.983Z,4.14
2019-01-23T02:48:06.567Z,4.17
2019-01-23T02:50:38.454Z,4.29
2019-01-23T02:53:11.732Z,4.43
2019-01-23T02:55:43.331Z,4.31
2019-01-23T02:58:15.230Z,4.49
2019-01-23T03:00:47.709Z,4.21
2019-01-23T03:03:18.811Z,4.77
2019-01-23T03:05:50.099Z,4.24
2019-01-23T03:08:20.764Z,4.16
2019-01-23T03:10:51.777Z,4.12
2019-01-23T03:13:23.537Z,4.07
2019-01-23T03:15:56.590Z,4.13
2019-01-23T03:18:28.039Z,3.67
2019-01-23T03:21:06.903Z,3.59
2019-01-23T03:23:39.176Z,3.67
2019-01-23T03:26:10.689Z,3.20
2019-01-23T03:28:42.066Z,3.62
2019-01-23T03:31:16.103Z,3.77
2019-01-23T03:33:49.140Z,3.83
2019-01-23T03:36:23.855Z,4.41
2019-01-23T03:39:02.649Z,4.76
2019-01-23T03:41:46.314Z,4.12
2019-01-23T03:44:18.504Z,4.12
2019-01-23T03:46:52.320Z,4.61
2019-01-23T03:49:24.039Z,4.32
2019-01-23T03:51:56.763Z,4.30
2019-01-23T03:54:28.482Z,4.65
2019-01-23T03:57:01.231Z,4.65
2019-01-23T03:59:35.826Z,4.71
2019-01-23T04:02:07.926Z,4.35
2019-01-23T04:04:39.572Z,3.93
2019-01-23T04:07:10.190Z,3.83
2019-01-23T04:09:41.567Z,4.37
2019-01-23T04:12:16.954Z,4.84
2019-01-23T04:14:51.746Z,4.97
2019-01-23T04:17:25.552Z,4.66
2019-01-23T04:19:57.194Z,5.05
2019-01-23T04:22:31.537Z,4.92
2019-01-23T04:25:09.667Z,4.76
2019-01-23T04:27:42.522Z,4.81
2019-01-23T04:30:20.919Z,4.94
2019-01-23T04:32:53.624Z,5.00
2019-01-23T04:35:25.094Z,5.39
2019-01-23T04:37:57.650Z,5.10
2019-01-23T04:40:28.214Z,5.57
2019-01-23T04:43:00.025Z,5.07
2019-01-23T04:45:32.194Z,4.70
2019-01-23T04:48:08.649Z,4.85
2019-01-23T04:51:14.544Z,4.40
2019-01-23T04:53:49.489Z,4.68
2019-01-23T04:56:21.752Z,4.43
2019-01-23T04:58:53.903Z,5.06
2019-01-23T05:01:25.762Z,4.42
2019-01-23T05:03:58.069Z,4.55
2019-01-23T05:06:29.896Z,4.21
2019-01-23T05:09:01.275Z,4.30
2019-01-23T05:11:34.769Z,3.93
2019-01-23T05:14:06.416Z,3.82
2019-01-23T05:16:37.977Z,4.14
2019-01-23T05:19:11.046Z,3.97
2019-01-23T05:21:43.449Z,4.29
2019-01-23T05:24:17.416Z,4.13
2019-01-23T05:26:48.801Z,4.31
2019-01-23T05:29:23.126Z,4.18
2019-01-23T05:32:00.736Z,4.45
2019-01-23T05:34:37.088Z,4.71
2019-01-23T05:37:11.206Z,5.00
2019-01-23T05:39:42.890Z,4.82
2019-01-23T05:42:14.621Z,5.26
2019-01-23T05:44:46.976Z,5.09
2019-01-23T05:47:18.655Z,4.42
2019-01-23T05:49:54.298Z,3.96
2019-01-23T05:52:25.562Z,4.01
2019-01-23T05:54:58.536Z,4.09
2019-01-23T05:57:30.821Z,3.90
2019-01-23T06:00:03.577Z,4.77
2019-01-23T06:02:46.575Z,4.03
2019-01-23T06:05:20.038Z,3.79
2019-01-23T06:07:52.358Z,3.62
2019-01-23T06:10:26.194Z,4.13
2019-01-23T06:12:57.993Z,4.61
2019-01-23T06:15:30.095Z,5.06
2019-01-23T06:18:01.916Z,4.78
2019-01-23T06:20:33.918Z,4.72
2019-01-23T06:23:06.018Z,4.57
2019-01-23T06:25:37.757Z,4.48
2019-01-23T06:28:09.862Z,4.88
2019-01-23T06:30:40.930Z,4.60
2019-01-23T06:33:14.585Z,4.66
2019-01-23T06:35:47.600Z,4.68
2019-01-23T06:38:23.369Z,4.80
2019-01-23T06:40:54.033Z,4.59
2019-01-23T06:43:25.929Z,4.64
2019-01-23T06:45:58.438Z,4.54
2019-01-23T06:48:31.293Z,5.11
2019-01-23T06:51:05.162Z,4.78
2019-01-23T06:53:36.394Z,5.42
2019-01-23T06:56:21.199Z,5.34
2019-01-23T06:58:52.502Z,4.82
2019-01-23T07:01:26.534Z,4.98
2019-01-23T07:03:57.911Z,4.99
2019-01-23T07:06:30.754Z,5.42
2019-01-23T07:09:01.857Z,4.46
2019-01-23T07:11:36.121Z,4.73
2019-01-23T07:14:07.674Z,4.87
2019-01-23T07:16:39.966Z,4.76
2019-01-23T07:19:10.572Z,4.76
2019-01-23T07:21:44.072Z,5.07
2019-01-23T07:24:16.098Z,4.48
2019-01-23T07:26:49.600Z,4.41
2019-01-23T07:29:23.585Z,4.75
2019-01-23T07:31:55.447Z,4.83
2019-01-23T07:34:29.650Z,4.73
2019-01-23T07:37:03.484Z,5.02
2019-01-23T07:39:35.196Z,5.26
2019-01-23T07:42:08.921Z,4.33
2019-01-23T07:44:41.712Z,4.56
2019-01-23T07:47:18.282Z,3.79
2019-01-23T07:49:50.282Z,4.34
2019-01-23T07:55:27.869Z,4.63
2019-01-23T07:57:59.542Z,4.42
2019-01-23T08:00:31.551Z,3.89
2019-01-23T08:03:02.884Z,4.61
2019-01-23T08:05:35.356Z,4.33
2019-01-23T08:08:08.035Z,4.68
2019-01-23T08:10:40.747Z,4.43
2019-01-23T08:13:11.515Z,4.27
2019-01-23T08:15:46.725Z,4.48
2019-01-23T08:18:17.691Z,4.42
2019-01-23T08:20:49.044Z,4.51
2019-01-23T08:23:21.211Z,3.76
2019-01-23T08:25:55.265Z,3.96
2019-01-23T08:28:26.753Z,4.28
2019-01-23T08:31:03.639Z,4.72
2019-01-23T08:33:34.804Z,4.18
2019-01-23T08:36:07.474Z,4.34
2019-01-23T08:38:38.702Z,4.01
2019-01-23T08:41:11.190Z,4.75
2019-01-23T08:43:43.015Z,4.90
2019-01-23T08:46:15.722Z,5.08
2019-01-23T08:48:47.884Z,4.81
2019-01-23T08:51:18.940Z,5.35
2019-01-23T08:53:50.258Z,4.88
2019-01-23T08:56:22.892Z,5.34
2019-01-23T08:58:55.008Z,5.66
2019-01-23T09:01:25.289Z,5.18
2019-01-23T09:03:57.188Z,4.84
2019-01-23T09:06:33.483Z,4.54
2019-01-23T09:09:08.466Z,4.26
2019-01-23T09:11:43.118Z,4.62
2019-01-23T09:14:14.474Z,4.16
2019-01-23T09:16:47.669Z,5.04
2019-01-23T09:19:19.833Z,5.41
2019-01-23T09:21:56.608Z,4.62
2019-01-23T09:24:33.995Z,5.12
2019-01-23T09:27:06.194Z,4.19
2019-01-23T09:29:39.319Z,4.75
2019-01-23T09:32:47.125Z,4.63
2019-01-23T09:35:49.647Z,4.12
2019-01-23T09:38:59.837Z,3.68
2019-01-23T09:42:17.343Z,4.22
2019-01-23T09:45:35.695Z,3.96
2019-01-23T09:48:43.918Z,4.33
2019-01-23T09:52:16.920Z,4.17
2019-01-23T09:54:49.202Z,4.34
2019-01-23T09:57:22.348Z,4.21
2019-01-23T09:59:54.686Z,4.18
2019-01-23T10:02:28.240Z,4.78
2019-01-23T10:05:01.363Z,5.44
2019-01-23T10:07:33.688Z,6.07
2019-01-23T10:10:05.208Z,5.91
2019-01-23T10:12:38.213Z,5.20
2019-01-23T10:15:15.436Z,5.71
2019-01-23T10:17:47.185Z,6.28
2019-01-23T10:20:18.537Z,5.87
2019-01-23T10:22:50.105Z,5.73
2019-01-23T10:25:21.288Z,5.03
2019-01-23T10:27:53.194Z,4.96
2019-01-23T10:30:26.160Z,4.41
2019-01-23T10:32:58.633Z,4.63
2019-01-23T10:35:35.309Z,4.86
2019-01-23T10:38:09.550Z,5.99
2019-01-23T10:40:42.783Z,5.50
2019-01-23T10:43:14.999Z,6.04
2019-01-23T10:45:46.498Z,5.91
2019-01-23T10:48:18.488Z,5.84
2019-01-23T10:50:50.607Z,5.60
2019-01-23T10:53:23.181Z,6.14
2019-01-23T10:55:59.015Z,6.76
2019-01-23T10:58:32.355Z,6.87
2019-01-23T11:01:06.035Z,7.49
2019-01-23T11:03:42.213Z,7.50
2019-01-23T11:06:16.365Z,6.64
2019-01-23T11:08:49.380Z,7.68
2019-01-23T11:11:25.261Z,7.51
2019-01-23T11:13:59.798Z,6.47
2019-01-23T11:16:34.092Z,6.72
2019-01-23T11:19:05.825Z,7.64
2019-01-23T11:21:43.416Z,7.95
2019-01-23T11:24:16.654Z,7.48
2019-01-23T11:26:49.421Z,7.73
2019-01-23T11:29:23.176Z,7.39
2019-01-23T11:31:57.129Z,7.64
2019-01-23T11:34:29.097Z,7.60
2019-01-23T11:37:01.495Z,6.50
2019-01-23T11:39:35.177Z,6.85
2019-01-23T11:42:08.306Z,7.48
2019-01-23T11:44:43.853Z,7.74
2019-01-23T11:47:18.885Z,7.71
2019-01-23T11:49:50.249Z,7.90
2019-01-23T11:52:23.422Z,8.04
2019-01-23T11:54:57.961Z,8.05
2019-01-23T11:57:31.031Z,7.75
2019-01-23T12:00:02.574Z,7.96
2019-01-23T12:02:37.859Z,7.72
2019-01-23T12:05:11.752Z,7.81
2019-01-23T12:07:46.245Z,7.86
2019-01-23T12:10:20.813Z,8.04
2019-01-23T12:12:53.880Z,8.04
2019-01-23T12:15:26.898Z,8.20
2019-01-23T12:18:00.933Z,8.23
2019-01-23T12:20:32.884Z,8.43
2019-01-23T12:23:04.369Z,8.54
2019-01-23T12:25:35.646Z,7.86
2019-01-23T12:28:07.081Z,7.55
2019-01-23T12:30:53.794Z,7.67
2019-01-23T12:33:35.526Z,7.39
2019-01-23T12:36:08.102Z,8.01
2019-01-23T12:38:39.128Z,7.51
2019-01-23T12:41:09.713Z,8.21
2019-01-23T12:43:41.658Z,8.05
2019-01-23T12:46:14.939Z,8.56
2019-01-23T12:48:53.109Z,8.45
2019-01-23T12:51:25.572Z,8.45
2019-01-23T12:53:58.135Z,7.57
2019-01-23T12:56:29.250Z,8.07
2019-01-23T12:59:04.442Z,7.93
2019-01-23T13:01:56.064Z,8.25
2019-01-23T13:04:30.658Z,7.20
2019-01-23T13:07:04.546Z,8.12
2019-01-23T13:09:36.083Z,8.47
2019-01-23T13:12:07.741Z,8.59
2019-01-23T13:14:38.353Z,8.56
2019-01-23T13:17:09.740Z,8.55
2019-01-23T13:19:44.671Z,8.95
2019-01-23T13:22:16.851Z,8.94
2019-01-23T13:24:53.500Z,8.73
2019-01-23T13:27:25.054Z,7.54
2019-01-23T13:29:58.540Z,7.35
2019-01-23T13:32:29.471Z,7.82
2019-01-23T13:35:01.666Z,8.18
2019-01-23T13:37:35.706Z,8.64
2019-01-23T13:40:12.164Z,8.30
2019-01-23T13:42:44.624Z,8.85
2019-01-23T13:45:17.567Z,8.92
2019-01-23T13:47:50.935Z,9.12
2019-01-23T13:50:22.548Z,8.87
2019-01-23T13:52:53.913Z,7.72
2019-01-23T13:55:27.847Z,8.14
2019-01-23T13:57:59.443Z,8.41
2019-01-23T14:00:37.298Z,8.00
2019-01-23T14:03:08.772Z,7.82
2019-01-23T14:05:40.340Z,8.51
2019-01-23T14:08:11.599Z,8.39
2019-01-23T14:10:44.643Z,8.70
2019-01-23T14:13:17.839Z,7.66
2019-01-23T14:15:50.634Z,7.50
2019-01-23T14:18:21.361Z,8.16
2019-01-23T14:20:52.974Z,7.34
2019-01-23T14:23:23.795Z,7.96
2019-01-23T14:25:56.063Z,7.52
2019-01-23T14:28:27.211Z,7.05
2019-01-23T14:30:58.843Z,7.88
2019-01-23T14:33:30.693Z,8.12
2019-01-23T14:36:04.717Z,8.26
2019-01-23T14:38:36.216Z,8.50
2019-01-23T14:41:08.937Z,7.97
2019-01-23T14:43:40.283Z,7.93
2019-01-23T14:46:12.959Z,7.98
2019-01-23T14:48:45.425Z,7.85
2019-01-23T14:51:19.065Z,7.70
2019-01-23T14:53:49.309Z,6.76
2019-01-23T14:56:21.372Z,6.72
2019-01-23T14:58:53.337Z,6.96
2019-01-23T15:01:25.700Z,7.14
2019-01-23T15:03:58.336Z,6.90
2019-01-23T15:06:30.124Z,7.03
2019-01-23T15:09:04.864Z,6.58
2019-01-23T15:11:37.328Z,6.48
2019-01-23T15:14:09.615Z,6.78
2019-01-23T15:16:42.784Z,6.71
2019-01-23T15:19:14.509Z,7.14
2019-01-23T15:21:46.206Z,7.11
2019-01-23T15:24:17.824Z,7.39
2019-01-23T15:26:50.487Z,7.40
2019-01-23T15:29:26.644Z,7.64
2019-01-23T15:31:58.537Z,7.39
2019-01-23T15:34:29.481Z,7.55
2019-01-23T15:37:02.871Z,7.84
2019-01-23T15:39:35.588Z,7.47
2019-01-23T15:42:07.022Z,7.76
2019-01-23T15:44:39.006Z,7.94
2019-01-23T15:47:16.421Z,7.52
2019-01-23T15:49:48.794Z,7.35
2019-01-23T15:52:23.079Z,7.38
2019-01-23T15:54:54.765Z,7.58
2019-01-23T15:57:27.842Z,7.88
2019-01-23T16:00:00.975Z,6.63
2019-01-23T16:02:35.143Z,6.25
2019-01-23T16:05:09.166Z,6.17
2019-01-23T16:07:40.922Z,5.76
2019-01-23T16:10:17.346Z,6.46
2019-01-23T16:12:50.521Z,6.23
2019-01-23T16:15:25.222Z,5.79
2019-01-23T16:17:57.753Z,5.74
2019-01-23T16:20:31.065Z,6.64
2019-01-23T16:23:03.664Z,5.74
2019-01-23T16:25:35.956Z,6.15
2019-01-23T16:28:20.990Z,6.10
2019-01-23T16:31:04.624Z,6.00
2019-01-23T16:34:03.813Z,5.37
2019-01-23T16:36:41.832Z,5.58
2019-01-23T16:39:18.452Z,5.71
2019-01-23T16:41:53.935Z,5.02
2019-01-23T16:44:32.043Z,5.64
2019-01-23T16:47:16.483Z,5.88
2019-01-23T16:49:56.805Z,6.12
2019-01-23T16:52:31.663Z,6.44
2019-01-23T16:55:15.756Z,6.52
2019-01-23T16:57:58.524Z,6.77
2019-01-23T17:00:34.460Z,6.28
2019-01-23T17:03:17.019Z,6.27
2019-01-23T17:05:57.126Z,6.77
2019-01-23T17:08:45.179Z,7.10
2019-01-23T17:11:29.304Z,7.07
2019-01-23T17:14:06.519Z,7.18
2019-01-23T17:16:42.584Z,6.30
2019-01-23T17:19:23.685Z,6.47
2019-01-23T17:21:59.121Z,6.69
2019-01-23T17:24:37.489Z,7.02
2019-01-23T17:27:15.215Z,7.08
2019-01-23T17:29:57.669Z,6.10
2019-01-23T17:32:38.310Z,6.51
2019-01-23T17:35:19.809Z,7.00
2019-01-23T17:38:02.048Z,6.83
2019-01-23T17:40:58.048Z,6.83
2019-01-23T17:43:40.851Z,6.61
2019-01-23T17:46:19.207Z,5.86
2019-01-23T17:52:08.051Z,6.34
2019-01-23T17:54:42.878Z,6.50
2019-01-23T17:57:14.263Z,6.15
2019-01-23T17:59:48.945Z,6.39
2019-01-23T18:02:40.374Z,6.67
2019-01-23T18:05:13.341Z,6.85
2019-01-23T18:07:44.752Z,6.27
2019-01-23T18:10:22.811Z,6.87
2019-01-23T18:12:55.977Z,6.93
2019-01-23T18:15:28.290Z,6.49
2019-01-23T18:18:00.339Z,6.96
2019-01-23T18:20:32.706Z,6.97
2019-01-23T18:23:07.449Z,7.00
2019-01-23T18:25:40.329Z,7.17
2019-01-23T18:28:13.766Z,6.69
2019-01-23T18:30:53.057Z,7.04
2019-01-23T18:33:32.451Z,6.85
2019-01-23T18:36:47.031Z,7.09
2019-01-23T18:39:55.168Z,7.34
2019-01-23T18:42:46.043Z,7.23
2019-01-23T18:45:41.188Z,6.92
2019-01-23T18:48:49.920Z,7.10
2019-01-23T18:51:32.451Z,7.27
2019-01-23T18:54:07.652Z,6.83
2019-01-23T18:56:38.922Z,6.50
2019-01-23T18:59:10.741Z,6.88
2019-01-23T19:01:42.057Z,7.03
2019-01-23T19:04:14.073Z,7.13
2019-01-23T19:06:46.535Z,6.89
2019-01-23T19:09:28.876Z,6.92
2019-01-23T19:12:02.887Z,7.04
2019-01-23T19:14:36.880Z,6.96
2019-01-23T19:17:07.187Z,7.17
2019-01-23T19:19:40.689Z,7.26
2019-01-23T19:22:11.180Z,7.28
2019-01-23T19:24:43.429Z,7.20
2019-01-23T19:27:17.130Z,7.03
2019-01-23T19:29:50.013Z,7.32
2019-01-23T19:32:21.093Z,7.42
2019-01-23T19:34:54.257Z,7.35
2019-01-23T19:37:26.725Z,6.86
2019-01-23T19:39:59.722Z,7.25
2019-01-23T19:42:31.379Z,7.19
2019-01-23T19:45:03.219Z,7.40
2019-01-23T19:47:33.814Z,7.49
2019-01-23T19:50:06.978Z,7.33
2019-01-23T19:52:38.907Z,7.44
2019-01-23T19:55:12.188Z,7.43
2019-01-23T19:57:42.795Z,7.55
2019-01-23T20:00:16.660Z,7.09
2019-01-23T20:02:47.708Z,6.99
2019-01-23T20:05:23.030Z,6.78
2019-01-23T20:07:55.906Z,7.13
2019-01-23T20:10:29.498Z,7.33
2019-01-23T20:13:00.153Z,7.30
2019-01-23T20:15:38.967Z,7.45
2019-01-23T20:18:13.046Z,7.48
2019-01-23T20:20:45.898Z,7.23
2019-01-23T20:23:17.470Z,7.45
2019-01-23T20:25:49.420Z,7.43
2019-01-23T20:28:22.832Z,7.50
2019-01-23T20:30:53.586Z,7.53
2019-01-23T20:33:28.046Z,7.56
2019-01-23T20:36:01.167Z,7.62
2019-01-23T20:38:35.065Z,7.62
2019-01-23T20:41:06.506Z,7.58
2019-01-23T20:43:38.815Z,7.62
2019-01-23T20:46:13.138Z,7.62
2019-01-23T20:48:44.260Z,7.69
2019-01-23T20:51:18.999Z,7.70
2019-01-23T20:53:50.516Z,7.67
2019-01-23T20:56:22.513Z,7.49
2019-01-23T20:58:53.968Z,7.68
2019-01-23T21:01:27.701Z,7.74
2019-01-23T21:03:59.428Z,7.72
2019-01-23T21:06:33.525Z,7.19
2019-01-23T21:09:11.342Z,7.50
2019-01-23T21:11:43.524Z,7.64
2019-01-23T21:14:18.666Z,7.47
2019-01-23T21:16:52.874Z,7.58
2019-01-23T21:19:23.993Z,7.67
2019-01-23T21:22:01.496Z,7.67
2019-01-23T21:24:42.963Z,7.64
2019-01-23T21:27:16.826Z,7.67
2019-01-23T21:29:53.516Z,7.57
2019-01-23T21:32:30.774Z,7.44
2019-01-23T21:35:09.208Z,7.57
2019-01-23T21:37:42.532Z,7.66
2019-01-23T21:40:21.191Z,7.73
2019-01-23T21:42:55.685Z,7.74
2019-01-23T21:45:40.839Z,7.60
2019-01-23T21:48:15.645Z,7.71
2019-01-23T21:50:48.177Z,7.75
2019-01-23T21:53:20.932Z,7.67
2019-01-23T21:55:54.765Z,7.59
2019-01-23T21:58:26.006Z,7.48
2019-01-23T22:01:04.282Z,7.46
2019-01-23T22:03:37.018Z,7.52
2019-01-23T22:06:12.542Z,7.55
2019-01-23T22:08:49.330Z,7.64
2019-01-23T22:11:26.567Z,7.61
2019-01-23T22:14:00.838Z,7.75
2019-01-23T22:16:35.009Z,7.79
2019-01-23T22:19:06.028Z,7.79
2019-01-23T22:21:38.387Z,7.75
2019-01-23T22:24:12.680Z,7.68
2019-01-23T22:26:43.709Z,7.60
2019-01-23T22:29:14.466Z,7.61
2019-01-23T22:31:48.562Z,7.64
2019-01-23T22:34:19.522Z,7.71
2019-01-23T22:36:52.413Z,7.71
2019-01-23T22:39:26.011Z,7.84
2019-01-23T22:42:01.335Z,7.76
2019-01-23T22:44:35.019Z,7.85
2019-01-23T22:47:12.137Z,7.87
2019-01-23T22:49:45.315Z,7.90
2019-01-23T22:52:19.004Z,7.72
2019-01-23T22:54:50.826Z,7.72
2019-01-23T22:57:26.150Z,7.64
2019-01-23T23:00:06.995Z,7.65
2019-01-23T23:02:52.822Z,7.72
2019-01-23T23:05:26.916Z,7.71
2019-01-23T23:08:00.989Z,7.71
2019-01-23T23:10:32.659Z,7.76
2019-01-23T23:13:05.310Z,7.58
2019-01-23T23:15:38.957Z,7.61
2019-01-23T23:18:09.985Z,7.80
2019-01-23T23:20:42.141Z,7.81
2019-01-23T23:23:13.233Z,7.83
2019-01-23T23:25:45.973Z,7.86
2019-01-23T23:28:18.557Z,7.75
2019-01-23T23:30:52.282Z,7.84
2019-01-23T23:33:24.137Z,7.88
2019-01-23T23:35:55.710Z,7.87
2019-01-23T23:38:28.455Z,7.92
2019-01-23T23:41:00.970Z,7.76
2019-01-23T23:43:32.490Z,7.80
2019-01-23T23:46:04.509Z,7.41
2019-01-23T23:48:37.099Z,7.62
2019-01-23T23:51:11.343Z,7.61
2019-01-23T23:53:42.717Z,7.55
2019-01-23T23:56:14.777Z,7.53
2019-01-23T23:58:45.599Z,7.50
